Time;durP1;ratioP1;P1;durP2;ratioP2;P2;SDS_P1;SDS_P2;PMS_P1;PMS_P2;Temp;Humidity;BMP_temperature;BMP_pressure;BME280_temperature;BME280_humidity;BME280_pressure;Samples;Min_cycle;Max_cycle;Signal;HPM_P1;HPM_P2
2022/07/18 00:01:31;;;;;;;;;;;;;;;18.84;66.04;100718.72;5051391;28;20092;-68
2022/07/18 00:03:56;;;;;;;;;;;;;;;18.81;67.53;100721.59;5055816;28;19935;-68
2022/07/18 00:06:21;;;;;;;;;;;;;;;18.80;68.18;100712.63;5055769;28;19995;-68
2022/07/18 00:08:47;;;;;;;;;;;;;;;18.77;68.68;100723.56;5052841;28;19937;-68
2022/07/18 00:11:12;;;;;;;;;;;;;;;18.71;67.80;100712.25;5036200;28;20275;-68
2022/07/18 00:13:37;;;;;;;;;;;;;;;19.00;66.58;100720.47;5036060;28;19936;-68
2022/07/18 00:16:03;;;;;;;;;;;;;;;18.83;67.41;100717.84;5035631;28;19971;-68
2022/07/18 00:18:28;;;;;;;;;;;;;;;18.78;67.30;100724.47;5035867;28;20304;-68
2022/07/18 00:20:54;;;;;;;;;;;;;;;18.67;67.54;100719.63;5035629;28;19931;-68
2022/07/18 00:23:19;;;;;;;;;;;;;;;18.88;66.52;100725.69;5035184;28;20339;-68
2022/07/18 00:25:44;;;;;;;;;;;;;;;18.93;66.50;100729.00;5034415;28;20077;-68
2022/07/18 00:28:11;;;;;;;;;;;;;;;18.91;65.50;100720.13;5050665;28;19952;-69
2022/07/18 00:30:37;;;;;;;;;;;;;;;18.92;64.85;100721.84;5054134;28;19944;-69
2022/07/18 00:33:02;;;;;;;;;;;;;;;18.90;64.38;100724.63;5052225;28;19926;-69
2022/07/18 00:35:27;;;;;;;;;;;;;;;18.86;64.36;100722.19;5034250;28;19935;-68
2022/07/18 00:37:53;;;;;;;;;;;;;;;18.81;64.57;100721.59;5032673;28;19970;-68
2022/07/18 00:40:18;;;;;;;;;;;;;;;18.78;65.89;100724.47;5033976;28;19924;-68
2022/07/18 00:42:43;;;;;;;;;;;;;;;18.70;65.11;100715.91;5033743;28;19985;-68
2022/07/18 00:45:09;;;;;;;;;;;;;;;18.64;65.98;100717.13;5032424;28;20225;-68
2022/07/18 00:47:34;;;;;;;;;;;;;;;18.58;65.97;100717.47;5033300;28;20463;-68
2022/07/18 00:50:00;;;;;;;;;;;;;;;18.26;68.41;100729.03;5031197;28;20439;-68
2022/07/18 00:52:25;;;;;;;;;;;;;;;18.13;69.09;100728.81;5032264;28;19933;-68
2022/07/18 00:54:50;;;;;;;;;;;;;;;18.30;68.28;100725.25;5032356;28;20272;-68
2022/07/18 00:57:16;;;;;;;;;;;;;;;18.36;66.98;100719.50;5032518;28;20692;-68
2022/07/18 01:02:26;;;;;;;;;;;;;;;18.25;66.55;100724.59;5037964;28;19980;-68
2022/07/18 01:04:51;;;;;;;;;;;;;;;18.18;67.29;100729.44;5052127;28;19935;-68
2022/07/18 01:07:16;;;;;;;;;;;;;;;18.26;68.22;100729.03;5051866;28;20043;-68
2022/07/18 01:09:42;;;;;;;;;;;;;;;18.27;68.05;100728.94;5051924;28;20051;-69
2022/07/18 01:12:08;;;;;;;;;;;;;;;18.15;69.33;100726.88;5051984;28;19928;-67
2022/07/18 01:14:35;;;;;;;;;;;;;;;18.18;69.82;100726.75;5033647;28;19943;-67
2022/07/18 01:17:00;;;;;;;;;;;;;;;18.10;69.01;100730.78;5051652;28;19929;-68
2022/07/18 01:19:26;;;;;;;;;;;;;;;17.99;68.59;100722.41;5051561;28;20428;-68
2022/07/18 01:21:51;;;;;;;;;;;;;;;17.96;68.90;100728.81;5051703;28;19981;-68
2022/07/18 01:24:16;;;;;;;;;;;;;;;17.95;70.02;100727.06;5051633;28;19929;-68
2022/07/18 01:26:41;;;;;;;;;;;;;;;17.94;70.72;100724.47;5051355;28;20380;-68
2022/07/18 01:29:07;;;;;;;;;;;;;;;17.89;70.06;100721.97;5051438;28;19937;-68
2022/07/18 01:31:33;;;;;;;;;;;;;;;17.85;70.63;100725.81;5051715;28;20359;-68
2022/07/18 01:33:59;;;;;;;;;;;;;;;17.81;71.27;100729.59;5050565;28;19989;-68
2022/07/18 01:36:24;;;;;;;;;;;;;;;17.81;70.56;100723.31;5050085;28;19933;-68
2022/07/18 01:38:49;;;;;;;;;;;;;;;17.76;70.97;100728.09;5050103;28;19926;-67
2022/07/18 01:41:15;;;;;;;;;;;;;;;17.69;70.67;100735.56;5051465;28;20406;-67
2022/07/18 01:43:41;;;;;;;;;;;;;;;17.63;71.94;100735.00;5051189;28;19929;-68
2022/07/18 01:46:07;;;;;;;;;;;;;;;17.56;72.09;100734.44;5050931;28;19931;-68
2022/07/18 01:48:33;;;;;;;;;;;;;;;17.56;72.67;100731.75;5051342;28;19931;-69
2022/07/18 01:50:58;;;;;;;;;;;;;;;17.52;72.25;100721.22;5051396;28;19969;-68
2022/07/18 01:53:24;;;;;;;;;;;;;;;17.44;72.35;100728.78;5051136;28;20306;-68
2022/07/18 01:55:49;;;;;;;;;;;;;;;17.37;72.34;100717.44;5051072;28;20516;-68
2022/07/18 01:58:15;;;;;;;;;;;;;;;17.31;72.56;100716.88;5050960;28;20387;-68
2022/07/18 02:00:40;;;;;;;;;;;;;;;17.27;73.86;100724.22;5051067;28;20290;-68
2022/07/18 02:03:05;;;;;;;;;;;;;;;17.21;75.27;100721.84;5050803;28;19941;-68
2022/07/18 02:05:31;;;;;;;;;;;;;;;17.15;75.51;100723.97;5043568;28;20430;-68
2022/07/18 02:07:56;;;;;;;;;;;;;;;17.13;75.80;100724.88;5050125;28;19927;-68
2022/07/18 02:10:21;;;;;;;;;;;;;;;17.07;75.50;100719.81;5050847;28;19998;-68
2022/07/18 02:12:47;;;;;;;;;;;;;;;17.04;75.76;100719.97;5050408;28;20466;-68
2022/07/18 02:15:14;;;;;;;;;;;;;;;16.97;76.55;100723.00;5050764;28;19935;-68
2022/07/18 02:17:39;;;;;;;;;;;;;;;16.90;76.50;100726.94;5050805;28;19919;-68
2022/07/18 02:20:06;;;;;;;;;;;;;;;16.86;76.95;100728.03;5050687;28;20433;-68
2022/07/18 02:22:31;;;;;;;;;;;;;;;16.87;76.66;100730.63;5050452;28;19931;-68
2022/07/18 02:24:57;;;;;;;;;;;;;;;16.84;77.58;100716.47;5050694;28;20034;-68
2022/07/18 02:27:22;;;;;;;;;;;;;;;16.82;76.97;100723.72;5050261;28;19977;-67
2022/07/18 02:29:47;;;;;;;;;;;;;;;16.79;77.62;100721.19;5050490;28;19952;-67
2022/07/18 02:32:13;;;;;;;;;;;;;;;16.76;78.07;100724.00;5050243;28;19935;-68
2022/07/18 02:34:38;;;;;;;;;;;;;;;16.77;78.09;100723.09;5050420;28;19923;-67
2022/07/18 02:37:04;;;;;;;;;;;;;;;16.69;80.04;100722.53;5050363;28;19930;-67
2022/07/18 02:39:30;;;;;;;;;;;;;;;16.68;79.81;100716.31;5048712;28;19925;-67
2022/07/18 02:41:55;;;;;;;;;;;;;;;16.66;79.22;100720.00;5031971;28;19934;-67
2022/07/18 02:44:21;;;;;;;;;;;;;;;16.57;79.86;100729.34;5028966;28;19913;-67
2022/07/18 02:46:46;;;;;;;;;;;;;;;16.57;79.60;100728.50;5028923;28;19955;-67
2022/07/18 02:49:26;;;;;;;;;;;;;;;16.55;79.13;100719.63;5028728;28;20424;-67
2022/07/18 02:51:52;;;;;;;;;;;;;;;16.52;78.48;100727.84;5029680;28;19959;-67
2022/07/18 02:54:17;;;;;;;;;;;;;;;16.47;79.27;100730.75;5027838;28;20027;-67
2022/07/18 02:56:43;;;;;;;;;;;;;;;16.42;80.86;100721.09;5028462;28;20365;-67
2022/07/18 02:59:08;;;;;;;;;;;;;;;16.39;80.52;100721.25;5028108;28;19938;-67
2022/07/18 03:01:33;;;;;;;;;;;;;;;16.33;81.59;100725.06;5028165;28;19928;-67
2022/07/18 03:04:00;;;;;;;;;;;;;;;16.32;80.43;100727.81;5045102;28;20022;-67
2022/07/18 03:06:25;;;;;;;;;;;;;;;16.29;80.43;100726.13;5047370;28;19997;-67
2022/07/18 03:08:50;;;;;;;;;;;;;;;16.24;80.50;100729.97;5047368;28;20034;-67
2022/07/18 03:11:16;;;;;;;;;;;;;;;16.19;80.24;100727.50;5047685;28;20378;-67
2022/07/18 03:13:41;;;;;;;;;;;;;;;16.17;80.29;100734.75;5048044;28;20013;-67
2022/07/18 03:16:06;;;;;;;;;;;;;;;16.13;81.05;100732.28;5048376;28;19928;-67
2022/07/18 03:18:32;;;;;;;;;;;;;;;16.07;82.28;100733.41;5048826;28;19954;-67
2022/07/18 03:20:57;;;;;;;;;;;;;;;16.05;82.93;100723.66;5049702;28;19953;-67
2022/07/18 03:23:22;;;;;;;;;;;;;;;16.01;82.78;100725.63;5049758;28;19927;-68
2022/07/18 03:25:47;;;;;;;;;;;;;;;16.00;83.97;100725.66;5049547;28;19931;-68
2022/07/18 03:28:13;;;;;;;;;;;;;;;15.98;83.98;100741.00;5048444;28;20374;-69
2022/07/18 03:30:38;;;;;;;;;;;;;;;15.96;83.96;100721.38;5047777;28;20462;-69
2022/07/18 03:33:03;;;;;;;;;;;;;;;16.00;83.50;100733.72;5047713;28;19978;-69
2022/07/18 03:35:29;;;;;;;;;;;;;;;15.94;83.68;100732.19;5047766;28;19981;-69
2022/07/18 03:37:54;;;;;;;;;;;;;;;15.94;83.85;100726.81;5047512;28;19936;-69
2022/07/18 03:40:19;;;;;;;;;;;;;;;15.91;83.99;100726.09;5047198;28;19924;-69
2022/07/18 03:42:44;;;;;;;;;;;;;;;15.89;83.93;100722.59;5047645;28;19927;-69
2022/07/18 03:45:10;;;;;;;;;;;;;;;15.85;84.34;100721.84;5049234;28;19930;-69
2022/07/18 03:47:35;;;;;;;;;;;;;;;15.82;85.41;100722.84;5049482;28;19943;-69
2022/07/18 03:50:00;;;;;;;;;;;;;;;15.87;84.87;100721.78;5048268;28;19973;-69
2022/07/18 03:52:26;;;;;;;;;;;;;;;15.87;85.34;100724.47;5047986;28;19980;-69
2022/07/18 03:54:51;;;;;;;;;;;;;;;15.85;83.95;100727.19;5046587;28;20016;-68
2022/07/18 03:57:17;;;;;;;;;;;;;;;15.79;85.65;100727.47;5046391;28;20615;-68
2022/07/18 03:59:42;;;;;;;;;;;;;;;15.68;85.15;100724.38;5046244;28;19962;-68
2022/07/18 04:02:07;;;;;;;;;;;;;;;15.62;85.96;100719.25;5048041;28;19941;-68
2022/07/18 04:04:33;;;;;;;;;;;;;;;15.59;86.50;100731.00;5044039;28;19928;-68
2022/07/18 04:06:59;;;;;;;;;;;;;;;15.64;85.61;100729.00;5028393;28;19957;-68
2022/07/18 04:09:25;;;;;;;;;;;;;;;15.71;85.15;100729.63;5041881;28;19929;-68
2022/07/18 04:11:50;;;;;;;;;;;;;;;15.77;85.97;100735.59;5049114;28;20006;-68
2022/07/18 04:14:15;;;;;;;;;;;;;;;15.81;85.69;100734.50;5048913;28;20442;-68
2022/07/18 04:16:40;;;;;;;;;;;;;;;15.82;85.21;100736.28;5049241;28;19920;-68
2022/07/18 04:19:06;;;;;;;;;;;;;;;15.90;85.37;100740.44;5048863;28;19963;-68
2022/07/18 04:21:31;;;;;;;;;;;;;;;15.97;85.17;100731.19;5051306;28;19934;-68
2022/07/18 04:23:56;;;;;;;;;;;;;;;16.01;85.44;100733.69;5052630;28;20394;-68
2022/07/18 04:26:22;;;;;;;;;;;;;;;16.03;84.77;100736.28;5052512;28;19948;-68
2022/07/18 04:28:47;;;;;;;;;;;;;;;16.09;84.26;100736.03;5052700;28;19940;-69
2022/07/18 04:31:12;;;;;;;;;;;;;;;16.15;83.88;100735.75;5052738;28;20008;-69
2022/07/18 04:33:38;;;;;;;;;;;;;;;16.21;83.79;100744.41;5019517;28;19996;-69
2022/07/18 04:36:03;;;;;;;;;;;;;;;16.32;84.78;100746.63;5032642;28;19968;-69
2022/07/18 04:38:33;;;;;;;;;;;;;;;16.37;83.35;100742.81;5032439;28;19958;-69
2022/07/18 04:40:59;;;;;;;;;;;;;;;16.48;82.66;100739.66;5032769;28;19932;-69
2022/07/18 04:43:24;;;;;;;;;;;;;;;16.55;82.62;100741.13;5035001;28;19937;-69
2022/07/18 04:45:50;;;;;;;;;;;;;;;16.59;82.43;100745.44;5032369;28;19963;-69
2022/07/18 04:48:15;;;;;;;;;;;;;;;16.66;82.20;100749.56;5032356;28;20039;-69
2022/07/18 04:50:40;;;;;;;;;;;;;;;16.70;81.52;100743.13;5032183;28;20401;-69
2022/07/18 04:53:06;;;;;;;;;;;;;;;16.79;81.56;100742.69;5032327;28;19926;-69
2022/07/18 04:55:31;;;;;;;;;;;;;;;16.87;80.50;100746.75;5034727;28;19997;-69
2022/07/18 04:57:56;;;;;;;;;;;;;;;16.97;80.49;100750.75;5032282;28;19931;-69
2022/07/18 05:00:24;;;;;;;;;;;;;;;17.04;79.71;100751.34;5032132;28;19982;-69
2022/07/18 05:02:50;;;;;;;;;;;;;;;17.15;79.75;100759.75;5041257;28;19937;-69
2022/07/18 05:05:16;;;;;;;;;;;;;;;17.30;79.60;100759.03;5043387;28;19929;-69
2022/07/18 05:07:42;;;;;;;;;;;;;;;17.45;78.84;100754.72;5048831;28;19936;-69
2022/07/18 05:10:08;;;;;;;;;;;;;;;17.55;79.09;100759.63;5052086;28;19955;-69
2022/07/18 05:12:37;;;;;;;;;;;;;;;17.66;78.90;100757.25;5051936;28;20033;-69
2022/07/18 05:15:04;;;;;;;;;;;;;;;17.80;78.39;100754.78;5051804;28;19930;-69
2022/07/18 05:17:29;;;;;;;;;;;;;;;17.93;77.82;100758.56;5051973;28;20357;-69
2022/07/18 05:19:55;;;;;;;;;;;;;;;18.10;77.45;100761.25;5051520;28;20006;-69
2022/07/18 05:22:21;;;;;;;;;;;;;;;18.30;76.94;100754.88;5051375;28;20336;-69
2022/07/18 05:24:47;;;;;;;;;;;;;;;18.54;76.28;100755.41;5051563;28;19928;-69
2022/07/18 05:27:12;;;;;;;;;;;;;;;18.71;75.68;100760.78;5050320;28;19929;-69
2022/07/18 05:29:37;;;;;;;;;;;;;;;18.85;74.70;100760.88;5050018;28;19929;-69
2022/07/18 05:32:03;;;;;;;;;;;;;;;18.98;74.00;100764.63;5049899;28;20403;-69
2022/07/18 05:34:28;;;;;;;;;;;;;;;19.13;72.52;100763.81;5050910;28;19925;-69
2022/07/18 05:36:54;;;;;;;;;;;;;;;19.26;71.12;100756.75;5050550;28;19933;-69
2022/07/18 05:39:20;;;;;;;;;;;;;;;19.38;69.75;100758.81;5051126;28;19934;-69
2022/07/18 05:41:45;;;;;;;;;;;;;;;19.47;70.39;100761.84;5051785;28;20368;-69
2022/07/18 05:44:10;;;;;;;;;;;;;;;19.57;65.23;100759.50;5051315;28;19930;-69
2022/07/18 05:46:35;;;;;;;;;;;;;;;19.65;65.59;100757.25;5051311;28;20466;-69
2022/07/18 05:49:01;;;;;;;;;;;;;;;19.83;67.08;100761.56;5051477;28;20434;-69
2022/07/18 05:51:26;;;;;;;;;;;;;;;20.00;65.27;100768.66;5051236;28;19951;-69
2022/07/18 05:53:51;;;;;;;;;;;;;;;20.14;63.79;100756.06;5051133;28;19927;-69
2022/07/18 05:56:16;;;;;;;;;;;;;;;20.28;63.63;100755.28;5050731;28;20029;-69
2022/07/18 05:58:42;;;;;;;;;;;;;;;20.36;60.36;100755.69;5051259;28;19982;-69
2022/07/18 06:01:07;;;;;;;;;;;;;;;20.49;61.05;100754.81;5036658;28;19929;-69
2022/07/18 06:03:32;;;;;;;;;;;;;;;20.63;59.05;100749.44;5048211;28;20359;-69
2022/07/18 06:05:58;;;;;;;;;;;;;;;20.73;59.83;100747.03;5050733;28;19947;-69
2022/07/18 06:08:23;;;;;;;;;;;;;;;20.85;59.03;100751.69;5033273;28;19935;-69
2022/07/18 06:10:48;;;;;;;;;;;;;;;20.91;58.99;100749.44;5049712;28;20107;-69
2022/07/18 06:13:13;;;;;;;;;;;;;;;21.04;59.10;100749.56;5049692;28;20375;-69
2022/07/18 06:15:39;;;;;;;;;;;;;;;21.16;58.12;100747.91;5049332;28;19931;-69
2022/07/18 06:18:04;;;;;;;;;;;;;;;21.12;57.32;100747.22;5049092;28;19926;-69
2022/07/18 06:20:29;;;;;;;;;;;;;;;21.25;57.80;100750.88;5049522;28;19988;-69
2022/07/18 06:22:54;;;;;;;;;;;;;;;21.28;57.49;100747.13;5049270;28;19976;-69
2022/07/18 06:25:20;;;;;;;;;;;;;;;21.40;56.53;100741.78;5050517;28;19932;-68
2022/07/18 06:27:45;;;;;;;;;;;;;;;21.52;57.39;100740.09;5037460;28;19926;-68
2022/07/18 06:30:10;;;;;;;;;;;;;;;21.73;54.96;100736.00;5030459;28;19945;-68
2022/07/18 06:32:36;;;;;;;;;;;;;;;21.95;55.74;100741.72;5023599;28;20024;-68
2022/07/18 06:35:02;;;;;;;;;;;;;;;22.02;51.98;100741.22;5011610;28;19937;-68
2022/07/18 06:37:27;;;;;;;;;;;;;;;22.00;50.53;100743.16;5028631;28;19928;-68
2022/07/18 06:39:52;;;;;;;;;;;;;;;21.94;51.32;100750.81;5028579;28;19934;-69
2022/07/18 06:42:17;;;;;;;;;;;;;;;22.05;49.97;100740.13;5028389;28;20021;-69
2022/07/18 06:44:43;;;;;;;;;;;;;;;22.30;51.62;100739.31;5027735;28;19929;-69
2022/07/18 06:47:08;;;;;;;;;;;;;;;22.49;48.47;100737.91;5028503;28;20024;-69
2022/07/18 06:49:33;;;;;;;;;;;;;;;22.74;48.81;100746.09;5028589;28;19930;-69
2022/07/18 06:51:59;;;;;;;;;;;;;;;22.97;49.58;100750.75;5029550;28;19986;-69
2022/07/18 06:54:27;;;;;;;;;;;;;;;23.15;48.03;100752.13;5030013;28;20015;-69
2022/07/18 06:56:53;;;;;;;;;;;;;;;23.37;49.17;100746.03;5029969;28;19927;-69
2022/07/18 06:59:18;;;;;;;;;;;;;;;23.62;50.86;100745.06;5029947;28;19932;-69
2022/07/18 07:01:43;;;;;;;;;;;;;;;23.86;50.87;100748.66;5029914;28;19938;-69
2022/07/18 07:04:09;;;;;;;;;;;;;;;24.04;49.77;100742.72;5026779;28;19922;-69
2022/07/18 07:06:37;;;;;;;;;;;;;;;24.13;48.38;100749.31;5010025;28;19947;-69
2022/07/18 07:09:02;;;;;;;;;;;;;;;24.37;46.74;100747.41;5010394;28;20411;-69
2022/07/18 07:11:27;;;;;;;;;;;;;;;24.57;46.81;100752.16;5010040;28;19947;-69
2022/07/18 07:13:53;;;;;;;;;;;;;;;24.76;45.81;100751.63;5010164;28;19967;-69
2022/07/18 07:16:18;;;;;;;;;;;;;;;25.01;45.88;100752.25;5010007;28;19984;-69
2022/07/18 07:18:43;;;;;;;;;;;;;;;25.05;45.29;100751.00;5014431;28;19961;-68
2022/07/18 07:21:09;;;;;;;;;;;;;;;25.18;45.20;100753.59;5029564;28;20385;-69
2022/07/18 07:23:34;;;;;;;;;;;;;;;25.33;44.96;100755.94;5029832;28;20072;-68
2022/07/18 07:25:59;;;;;;;;;;;;;;;25.53;46.51;100760.66;5030187;28;20368;-68
2022/07/18 07:28:25;;;;;;;;;;;;;;;25.55;46.31;100757.81;5047920;28;19934;-68
2022/07/18 07:30:50;;;;;;;;;;;;;;;25.75;46.63;100755.16;5049432;28;20001;-68
2022/07/18 07:33:16;;;;;;;;;;;;;;;26.25;44.87;100761.81;5049257;28;19929;-68
2022/07/18 07:35:41;;;;;;;;;;;;;;;26.59;44.93;100760.63;5047560;28;19925;-69
2022/07/18 07:38:06;;;;;;;;;;;;;;;26.82;44.03;100758.66;5047639;28;20426;-69
2022/07/18 07:40:32;;;;;;;;;;;;;;;26.93;44.73;100761.31;5047597;28;19937;-69
2022/07/18 07:43:05;;;;;;;;;;;;;;;27.21;43.27;100755.13;5047158;28;19930;-69
2022/07/18 07:45:30;;;;;;;;;;;;;;;27.45;42.80;100758.41;5047792;28;19937;-69
2022/07/18 07:47:55;;;;;;;;;;;;;;;27.79;42.38;100762.50;5047454;28;19935;-69
2022/07/18 07:50:20;;;;;;;;;;;;;;;28.24;42.10;100763.72;5047883;28;19955;-69
2022/07/18 07:52:46;;;;;;;;;;;;;;;28.66;41.17;100752.50;5047778;28;19982;-69
2022/07/18 07:55:11;;;;;;;;;;;;;;;28.77;39.73;100755.03;5049831;28;20020;-68
2022/07/18 07:57:37;;;;;;;;;;;;;;;28.76;39.06;100748.72;5037679;28;19932;-66
2022/07/18 08:00:07;;;;;;;;;;;;;;;29.12;39.65;100750.66;5032031;28;19941;-66
2022/07/18 08:02:32;;;;;;;;;;;;;;;29.35;39.90;100742.91;5037702;28;19972;-65
2022/07/18 08:04:58;;;;;;;;;;;;;;;29.46;38.40;100743.56;5037666;28;19939;-65
2022/07/18 08:07:24;;;;;;;;;;;;;;;29.81;36.98;100748.28;5040074;28;19948;-65
2022/07/18 08:09:49;;;;;;;;;;;;;;;29.82;38.73;100739.03;5051612;28;20017;-65
2022/07/18 08:12:14;;;;;;;;;;;;;;;30.27;35.49;100739.88;5051329;28;19961;-65
2022/07/18 08:14:41;;;;;;;;;;;;;;;30.57;35.07;100753.19;5051747;28;20077;-65
2022/07/18 08:17:07;;;;;;;;;;;;;;;30.36;35.88;100744.41;5051644;28;19920;-65
2022/07/18 08:19:32;;;;;;;;;;;;;;;30.48;34.69;100737.63;5051580;28;20427;-65
2022/07/18 08:21:57;;;;;;;;;;;;;;;30.73;34.90;100741.44;5051489;28;19932;-65
2022/07/18 08:24:23;;;;;;;;;;;;;;;30.59;34.27;100731.03;5051493;28;20377;-65
2022/07/18 08:26:48;;;;;;;;;;;;;;;30.87;34.37;100733.47;5051050;28;20349;-65
2022/07/18 08:29:13;;;;;;;;;;;;;;;31.09;33.21;100732.06;5052426;28;19928;-65
2022/07/18 08:31:38;;;;;;;;;;;;;;;31.22;33.26;100726.97;5052727;28;19958;-67
2022/07/18 08:34:04;;;;;;;;;;;;;;;31.39;33.25;100730.69;5052255;28;19927;-66
2022/07/18 08:36:29;;;;;;;;;;;;;;;31.64;33.61;100727.00;5050832;28;20400;-66
2022/07/18 08:38:54;;;;;;;;;;;;;;;32.04;32.97;100719.72;5033768;28;20294;-67
2022/07/18 08:41:22;;;;;;;;;;;;;;;32.03;31.84;100720.78;5030620;28;19927;-67
2022/07/18 08:43:48;;;;;;;;;;;;;;;31.75;31.80;100724.81;5030766;28;20407;-67
2022/07/18 08:46:14;;;;;;;;;;;;;;;31.94;32.56;100726.44;5031507;28;20007;-67
2022/07/18 08:48:40;;;;;;;;;;;;;;;32.06;31.32;100719.56;5031042;28;19934;-67
2022/07/18 08:51:05;;;;;;;;;;;;;;;32.41;32.86;100716.50;5030948;28;19955;-67
2022/07/18 08:53:32;;;;;;;;;;;;;;;32.78;32.17;100714.09;5030985;28;20265;-67
2022/07/18 08:55:57;;;;;;;;;;;;;;;33.09;30.76;100722.47;5030954;28;20386;-67
2022/07/18 08:58:22;;;;;;;;;;;;;;;33.27;30.01;100714.81;5030759;28;19958;-67
2022/07/18 09:00:48;;;;;;;;;;;;;;;32.81;30.80;100715.59;5033563;28;19962;-67
2022/07/18 09:03:13;;;;;;;;;;;;;;;32.56;30.76;100714.78;5043651;28;20020;-67
2022/07/18 09:05:41;;;;;;;;;;;;;;;32.23;31.88;100707.53;5052040;28;19948;-67
2022/07/18 09:08:09;;;;;;;;;;;;;;;32.44;32.06;100716.16;5051821;28;19931;-67
2022/07/18 09:11:01;;;;;;;;;;;;;;;32.71;32.07;100704.78;5051935;28;19956;-68
2022/07/18 09:13:33;;;;;;;;;;;;;;;32.89;31.88;100715.59;5047925;28;19935;-68
2022/07/18 09:15:58;;;;;;;;;;;;;;;33.31;32.18;100711.50;5052202;28;19942;-68
2022/07/18 09:18:27;;;;;;;;;;;;;;;33.16;31.00;100716.06;5052050;28;20307;-68
2022/07/18 09:21:01;;;;;;;;;;;;;;;32.62;31.41;100708.56;5050716;28;19927;-68
2022/07/18 09:23:27;;;;;;;;;;;;;;;32.93;32.70;100709.56;5050083;28;19938;-68
2022/07/18 09:25:52;;;;;;;;;;;;;;;33.24;31.71;100710.53;5049950;28;19921;-68
2022/07/18 09:28:18;;;;;;;;;;;;;;;33.32;31.56;100717.91;5049721;28;19985;-68
2022/07/18 09:30:43;;;;;;;;;;;;;;;33.53;32.47;100711.78;5050027;28;19953;-68
2022/07/18 09:33:10;;;;;;;;;;;;;;;33.78;30.19;100713.38;5049724;28;19948;-68
2022/07/18 09:35:35;;;;;;;;;;;;;;;34.27;31.71;100709.25;5050429;28;20026;-68
2022/07/18 09:38:14;;;;;;;;;;;;;;;34.39;30.11;100707.78;5050913;28;20027;-68
2022/07/18 09:40:43;;;;;;;;;;;;;;;34.47;30.64;100710.50;5030622;28;20012;-68
2022/07/18 09:43:13;;;;;;;;;;;;;;;34.40;30.14;100707.63;5030032;28;19935;-68
2022/07/18 09:45:42;;;;;;;;;;;;;;;34.29;32.08;100707.16;5030127;28;20412;-70
2022/07/18 09:48:12;;;;;;;;;;;;;;;34.71;29.48;100712.19;5029968;28;19938;-69
2022/07/18 09:50:40;;;;;;;;;;;;;;;34.59;30.14;100703.47;5029893;28;19957;-69
2022/07/18 09:53:13;;;;;;;;;;;;;;;34.53;30.28;100701.47;5030749;28;19932;-69
2022/07/18 09:55:43;;;;;;;;;;;;;;;34.80;30.87;100694.44;5049306;28;20362;-69
2022/07/18 09:58:08;;;;;;;;;;;;;;;34.70;28.90;100697.50;5051262;28;20355;-69
2022/07/18 10:00:35;;;;;;;;;;;;;;;34.92;27.85;100696.59;5050463;28;19940;-69
2022/07/18 10:03:01;;;;;;;;;;;;;;;34.92;29.46;100692.97;5050841;28;19954;-69
2022/07/18 10:05:31;;;;;;;;;;;;;;;35.28;28.96;100696.69;5050985;28;19985;-70
2022/07/18 10:07:57;;;;;;;;;;;;;;;35.58;26.21;100702.03;5051014;28;19947;-69
2022/07/18 10:10:25;;;;;;;;;;;;;;;35.96;27.46;100694.41;5045514;28;19941;-69
2022/07/18 10:12:53;;;;;;;;;;;;;;;36.21;26.49;100697.63;5042475;28;19944;-69
2022/07/18 10:15:20;;;;;;;;;;;;;;;36.14;26.19;100705.88;5050648;28;19932;-70
2022/07/18 10:17:46;;;;;;;;;;;;;;;36.32;26.75;100699.88;5049273;28;19940;-69
2022/07/18 10:20:11;;;;;;;;;;;;;;;36.39;27.65;100689.72;5048818;28;19965;-70
2022/07/18 10:22:43;;;;;;;;;;;;;;;36.63;26.79;100692.06;5048613;28;19932;-69
2022/07/18 10:25:10;;;;;;;;;;;;;;;36.68;27.21;100700.63;5048731;28;20012;-69
2022/07/18 10:27:49;;;;;;;;;;;;;;;36.73;27.34;100692.56;5049789;28;19930;-69
2022/07/18 10:30:15;;;;;;;;;;;;;;;36.63;25.99;100692.06;5050484;28;19992;-69
2022/07/18 10:32:41;;;;;;;;;;;;;;;36.54;27.58;100685.78;5050234;28;19941;-69
2022/07/18 10:35:06;;;;;;;;;;;;;;;36.67;27.54;100677.56;5051111;28;20418;-70
2022/07/18 10:37:35;;;;;;;;;;;;;;;36.56;26.53;100671.72;5050380;28;19952;-69
2022/07/18 10:40:20;;;;;;;;;;;;;;;36.36;26.45;100670.75;5050317;28;19964;-69
2022/07/18 10:42:45;;;;;;;;;;;;;;;36.72;27.32;100668.69;5050216;28;19939;-69
2022/07/18 10:45:40;;;;;;;;;;;;;;;36.86;26.64;100667.72;5048529;28;20350;-69
2022/07/18 10:48:24;;;;;;;;;;;;;;;36.91;26.81;100668.84;5029987;28;19938;-69
2022/07/18 10:51:01;;;;;;;;;;;;;;;37.06;26.47;100665.94;5030029;28;19955;-69
2022/07/18 10:53:45;;;;;;;;;;;;;;;37.25;27.22;100658.81;5030143;28;20297;-69
2022/07/18 10:56:10;;;;;;;;;;;;;;;37.56;25.80;100661.94;5030380;28;19986;-69
2022/07/18 10:58:38;;;;;;;;;;;;;;;37.62;25.73;100661.06;5030069;28;20383;-69
2022/07/18 11:01:05;;;;;;;;;;;;;;;37.58;25.37;100657.88;5029873;28;19987;-69
2022/07/18 11:03:31;;;;;;;;;;;;;;;37.40;26.02;100651.19;5044414;28;20016;-69
2022/07/18 11:05:56;;;;;;;;;;;;;;;37.41;24.78;100659.31;5049960;28;20043;-69
2022/07/18 11:08:24;;;;;;;;;;;;;;;37.58;25.66;100652.31;5050088;28;19972;-69
2022/07/18 11:11:01;;;;;;;;;;;;;;;37.80;25.41;100653.91;5040875;28;20436;-69
2022/07/18 11:13:32;;;;;;;;;;;;;;;38.40;24.59;100649.31;5029272;28;19934;-69
2022/07/18 11:16:11;;;;;;;;;;;;;;;38.38;24.54;100651.44;5028520;28;20277;-69
2022/07/18 11:18:43;;;;;;;;;;;;;;;38.14;23.50;100648.22;5028243;28;20048;-69
2022/07/18 11:21:18;;;;;;;;;;;;;;;38.46;23.01;100648.44;5028496;28;20060;-69
2022/07/18 11:23:46;;;;;;;;;;;;;;;38.06;23.24;100640.06;5028153;28;19941;-69
2022/07/18 11:26:14;;;;;;;;;;;;;;;38.25;24.23;100638.41;5027771;28;20012;-69
2022/07/18 11:28:39;;;;;;;;;;;;;;;38.31;23.17;100642.22;5027782;28;20424;-69
2022/07/18 11:31:06;;;;;;;;;;;;;;;38.52;24.27;100639.25;5029276;28;19951;-69
2022/07/18 11:33:33;;;;;;;;;;;;;;;38.85;24.55;100640.91;5043783;28;19933;-69
2022/07/18 11:36:05;;;;;;;;;;;;;;;39.25;24.62;100638.91;5049565;28;19979;-69
2022/07/18 11:38:30;;;;;;;;;;;;;;;39.29;22.94;100635.44;5049432;28;19932;-69
2022/07/18 11:40:55;;;;;;;;;;;;;;;39.40;23.27;100632.00;5049567;28;20298;-69
2022/07/18 11:43:24;;;;;;;;;;;;;;;39.64;23.16;100633.16;5049744;28;19987;-69
2022/07/18 11:46:06;;;;;;;;;;;;;;;39.79;22.05;100619.78;5049630;28;20027;-69
2022/07/18 11:48:32;;;;;;;;;;;;;;;39.77;22.84;100616.34;5049413;28;19962;-68
2022/07/18 11:50:58;;;;;;;;;;;;;;;39.72;23.51;100616.22;5032227;28;20438;-68
2022/07/18 11:53:23;;;;;;;;;;;;;;;39.58;24.55;100622.91;5029376;28;20017;-68
2022/07/18 11:55:49;;;;;;;;;;;;;;;39.57;23.24;100612.88;5029662;28;19935;-68
2022/07/18 11:58:14;;;;;;;;;;;;;;;39.48;22.66;100611.41;5029686;28;20087;-69
2022/07/18 12:00:40;;;;;;;;;;;;;;;39.89;21.29;100609.03;5029676;28;19938;-68
2022/07/18 12:03:10;;;;;;;;;;;;;;;39.63;21.45;100605.53;5040494;28;20398;-68
2022/07/18 12:05:40;;;;;;;;;;;;;;;39.94;22.31;100612.00;5049189;28;20422;-68
2022/07/18 12:08:24;;;;;;;;;;;;;;;40.12;23.17;100598.13;5030987;28;19923;-68
2022/07/18 12:11:08;;;;;;;;;;;;;;;39.84;22.75;100596.84;5048979;28;19972;-68
2022/07/18 12:13:51;;;;;;;;;;;;;;;39.79;23.35;100591.91;5048837;28;19985;-68
2022/07/18 12:16:23;;;;;;;;;;;;;;;40.04;24.37;100601.19;5049547;28;20303;-68
2022/07/18 12:18:49;;;;;;;;;;;;;;;40.12;21.94;100597.25;5046356;28;20008;-68
2022/07/18 12:21:14;;;;;;;;;;;;;;;40.22;21.63;100597.59;5011577;28;19934;-68
2022/07/18 12:23:39;;;;;;;;;;;;;;;40.41;23.38;100591.88;5009704;28;19950;-68
2022/07/18 12:26:05;;;;;;;;;;;;;;;40.23;21.81;100594.59;5009580;28;19931;-68
2022/07/18 12:28:30;;;;;;;;;;;;;;;40.30;22.52;100594.56;5028214;28;19977;-68
2022/07/18 12:30:55;;;;;;;;;;;;;;;40.55;23.11;100592.59;5028876;28;19953;-68
2022/07/18 12:33:21;;;;;;;;;;;;;;;40.49;22.40;100588.81;5016170;28;19938;-68
2022/07/18 12:35:54;;;;;;;;;;;;;;;40.61;22.20;100592.53;5009320;28;19935;-68